საიტი მუშაობს სატესტო რეჟიმში

მეტეოროლოგიური შეტყობინებები

მეტეოსამსახური

SAGG31 UGTB 181900

მოქმედების ლოკალური ვადა 18 მაისი 23:00 : 18 მაისი 23:30
GG UGTBMAIL
181901 UGTBYMYX
SAGG31 UGTB 181900
METAR UGTB 181900Z 33008KT CAVOK 18/06 Q1012 NOSIG=
METAR UGSB 181900Z 13013KT CAVOK 21/10 Q1007 NOSIG=
METAR UGKO 181900Z 06008KT CAVOK 17/14 Q1009 NOSIG=

SAGG41 UGTB 181900

მოქმედების ლოკალური ვადა 18 მაისი 23:00 : 18 მაისი 23:30
GG UGTBMAIL
181901 UGTBYMYX
SAGG41 UGTB 181900
METAR UGAM 181900Z AUTO 11004KT 080V170 //// ////// 12/09 Q1013=
METAR UGMS 181900Z AUTO /////KT //// ////// 08/05 Q1019=

FTGG31 UGTB 181700

მოქმედების ლოკალური ვადა 18 მაისი 22:00 : 19 მაისი 22:00
FF UGTBMAIL
181702 UGTBYMYX
FTGG31 UGTB 181700
TAF UGTB 181700Z 1818/1918 33007KT CAVOK TX27/1911Z TN14/1902Z
BECMG 1909/1911 31026KT SCT040CB TEMPO 1911/1918 31032G42KT=
TAF UGKO 181700Z 1818/1918 08006KT CAVOK TX20/1912Z TN15/1918Z TEMPO
1900/1904 08016KT BECMG 1900/1902 SCT030CB BKN060 TEMPO 1904/1908
27016KT TSRA=
TAF UGSB 181700Z 1818/1918 02006KT CAVOK TX20/1913Z TN15/1901Z BECMG
1818/1821 12010KT TEMPO 1821/1901 13020KT BECMG 1901/1902 22013KT
SCT025 BKN080 TEMPO 1901/1908 23025G45KT 5000 TSRA SCT012
BKN023CB BECMG 1913/1916 02007KT CAVOK=